Time;durP1;ratioP1;P1;durP2;ratioP2;P2;SDS_P1;SDS_P2;PMS_P1;PMS_P2;Temp;Humidity;BMP_temperature;BMP_pressure;BME280_temperature;BME280_humidity;BME280_pressure;Samples;Min_cycle;Max_cycle;Signal;HPM_P1;HPM_P2
2023/03/29 00:00:24;;;;;;;5.47;2.87;;;9.40;81.10;;;;;;5005033;28;20179;-87
2023/03/29 00:02:50;;;;;;;3.67;3.23;;;9.40;81.90;;;;;;5004607;28;20238;-85
2023/03/29 00:05:21;;;;;;;3.30;3.00;;;9.40;80.50;;;;;;5002484;28;20178;-87
2023/03/29 00:07:52;;;;;;;6.43;3.10;;;9.30;80.50;;;;;;5000650;28;20225;-87
2023/03/29 00:10:20;;;;;;;4.53;3.03;;;9.30;80.00;;;;;;4998435;28;20177;-87
2023/03/29 00:12:46;;;;;;;2.73;2.50;;;9.40;80.70;;;;;;4997632;28;20210;-87
2023/03/29 00:15:12;;;;;;;3.23;3.03;;;9.20;81.10;;;;;;4998449;28;20535;-87
2023/03/29 00:17:37;;;;;;;2.87;2.67;;;9.20;80.20;;;;;;4998818;28;20184;-87
2023/03/29 00:20:11;;;;;;;3.40;3.10;;;9.20;80.30;;;;;;4999172;28;20294;-87
2023/03/29 00:22:38;;;;;;;3.27;3.03;;;9.30;80.70;;;;;;4999733;28;20212;-86
2023/03/29 00:25:06;;;;;;;3.47;3.20;;;9.30;80.40;;;;;;4998380;28;20177;-85
2023/03/29 00:27:33;;;;;;;3.90;3.07;;;9.30;80.70;;;;;;4999512;28;20526;-87
2023/03/29 00:29:59;;;;;;;3.40;3.00;;;9.30;79.10;;;;;;4999210;28;20179;-85
2023/03/29 00:32:25;;;;;;;3.40;3.10;;;9.30;78.80;;;;;;4999188;28;20181;-86
2023/03/29 00:34:50;;;;;;;3.27;2.97;;;9.30;79.20;;;;;;4997880;28;20218;-87
2023/03/29 00:37:17;;;;;;;3.27;2.70;;;9.20;80.10;;;;;;5003658;28;20183;-88
2023/03/29 00:39:44;;;;;;;2.70;2.50;;;9.30;78.10;;;;;;5009664;28;20171;-88
2023/03/29 00:42:14;;;;;;;3.37;2.90;;;9.20;77.80;;;;;;5154569;22;20232;-88
2023/03/29 00:45:05;;;;;;;4.13;2.73;;;9.20;77.40;;;;;;5039035;28;20173;-89
2023/03/29 00:47:48;;;;;;;3.23;2.80;;;9.20;77.50;;;;;;5039629;28;20207;-89
2023/03/29 00:50:25;;;;;;;2.80;2.60;;;9.20;80.20;;;;;;5039583;28;20203;-88
2023/03/29 00:52:56;;;;;;;2.90;2.70;;;9.20;80.70;;;;;;5038262;28;20208;-88
2023/03/29 00:55:26;;;;;;;3.23;2.80;;;9.20;79.50;;;;;;5038136;28;20180;-88
2023/03/29 00:57:54;;;;;;;3.10;2.80;;;9.10;79.50;;;;;;5020260;28;20265;-90
2023/03/29 01:00:23;;;;;;;2.70;2.50;;;9.10;81.50;;;;;;5037155;28;20169;-87
2023/03/29 01:02:53;;;;;;;3.07;2.87;;;9.10;79.50;;;;;;5037689;28;20262;-89
2023/03/29 01:05:36;;;;;;;3.07;2.70;;;9.10;80.90;;;;;;5036684;28;20252;-90
2023/03/29 01:08:17;;;;;;;2.87;2.67;;;9.10;80.40;;;;;;5038329;28;20177;-88
2023/03/29 01:10:52;;;;;;;3.20;2.70;;;9.10;80.00;;;;;;5018811;28;20184;-88
2023/03/29 01:13:45;;;;;;;2.83;2.63;;;9.10;80.30;;;;;;5017777;28;20207;-89
2023/03/29 01:16:13;;;;;;;3.10;2.80;;;9.10;81.10;;;;;;5025308;28;20838;-88
2023/03/29 01:18:40;;;;;;;3.60;2.97;;;9.00;80.50;;;;;;5038648;28;20212;-88
2023/03/29 01:21:15;;;;;;;3.80;2.40;;;9.00;80.60;;;;;;5038146;28;20198;-89
2023/03/29 01:23:57;;;;;;;2.83;2.63;;;9.00;80.00;;;;;;5038584;28;20212;-89
2023/03/29 01:26:34;;;;;;;2.60;2.40;;;9.00;81.30;;;;;;5037045;28;20301;-90
2023/03/29 01:29:08;;;;;;;2.70;2.50;;;9.10;79.80;;;;;;5037419;28;20201;-90
2023/03/29 01:31:42;;;;;;;4.10;2.60;;;9.00;80.90;;;;;;5036205;28;20200;-88
2023/03/29 01:34:28;;;;;;;3.07;2.70;;;9.00;81.70;;;;;;5036150;28;20223;-89
2023/03/29 01:37:03;;;;;;;2.80;2.60;;;9.10;84.10;;;;;;4976633;28;20186;-88
2023/03/29 01:39:29;;;;;;;3.00;2.53;;;8.90;84.60;;;;;;5016786;28;20196;-88
2023/03/29 01:41:55;;;;;;;3.23;2.60;;;8.80;85.30;;;;;;5017335;28;20206;-88
2023/03/29 01:44:31;;;;;;;3.97;2.53;;;8.70;86.10;;;;;;5016758;28;20154;-89
2023/03/29 01:47:18;;;;;;;2.60;2.47;;;8.70;85.60;;;;;;4999374;28;20204;-89
2023/03/29 01:50:18;;;;;;;2.60;2.40;;;8.70;85.50;;;;;;5029028;28;20193;-88
2023/03/29 01:52:55;;;;;;;3.73;2.87;;;8.70;86.90;;;;;;5019355;28;20219;-89
2023/03/29 01:55:31;;;;;;;2.73;2.40;;;8.60;88.70;;;;;;5035800;28;20172;-88
2023/03/29 01:58:00;;;;;;;2.77;2.57;;;8.60;87.30;;;;;;5036818;28;20258;-88
2023/03/29 02:00:28;;;;;;;3.30;3.00;;;8.60;87.80;;;;;;5035568;28;20189;-88
2023/03/29 02:02:58;;;;;;;3.97;3.63;;;8.50;86.20;;;;;;5016127;28;20202;-89
2023/03/29 02:05:27;;;;;;;3.97;3.57;;;8.40;86.40;;;;;;5016182;28;20162;-88
2023/03/29 02:07:54;;;;;;;3.83;3.10;;;8.40;88.10;;;;;;5017164;28;20200;-89
2023/03/29 02:10:21;;;;;;;3.17;2.87;;;8.40;85.90;;;;;;5014959;28;20189;-88
2023/03/29 02:12:49;;;;;;;3.50;3.20;;;8.40;87.40;;;;;;5016185;28;20252;-89
2023/03/29 02:15:18;;;;;;;3.17;2.97;;;8.40;86.60;;;;;;5015589;28;20178;-89
2023/03/29 02:17:45;;;;;;;4.27;2.93;;;8.40;86.60;;;;;;5017579;28;20186;-89
2023/03/29 02:20:21;;;;;;;3.87;2.83;;;8.40;87.30;;;;;;5018178;28;20180;-89
2023/03/29 02:22:51;;;;;;;3.40;2.90;;;8.50;88.20;;;;;;5018222;28;20201;-87
2023/03/29 02:25:17;;;;;;;3.17;2.90;;;8.60;87.60;;;;;;5035768;28;20185;-90
2023/03/29 02:27:43;;;;;;;2.80;2.60;;;8.50;87.30;;;;;;5035639;28;20189;-89
2023/03/29 02:30:11;;;;;;;3.40;2.70;;;8.50;88.00;;;;;;5018354;28;20540;-88
2023/03/29 02:32:48;;;;;;;3.00;2.70;;;8.50;88.50;;;;;;5035018;28;20239;-89
2023/03/29 02:35:20;;;;;;;2.60;2.40;;;8.40;86.70;;;;;;5035524;28;20172;-89
2023/03/29 02:37:50;;;;;;;3.03;2.53;;;8.30;88.70;;;;;;5034937;28;20165;-90
2023/03/29 02:40:17;;;;;;;2.53;2.30;;;8.20;87.20;;;;;;5018330;28;20647;-88
2023/03/29 02:42:44;;;;;;;2.70;2.50;;;8.00;88.60;;;;;;5036484;28;20621;-89
2023/03/29 02:45:13;;;;;;;3.20;2.50;;;8.10;90.10;;;;;;5035174;28;20180;-88
2023/03/29 02:47:45;;;;;;;2.57;2.37;;;8.00;90.30;;;;;;5036523;28;20451;-89
2023/03/29 02:50:11;;;;;;;3.97;2.60;;;8.00;90.40;;;;;;5036449;28;20185;-87
2023/03/29 02:52:44;;;;;;;3.07;2.53;;;8.00;88.10;;;;;;5054800;28;20271;-92
2023/03/29 02:55:16;;;;;;;2.50;2.30;;;7.90;88.10;;;;;;5037614;28;20176;-91
2023/03/29 02:57:42;;;;;;;2.40;2.20;;;7.80;89.10;;;;;;5051050;28;20246;-88
2023/03/29 03:00:10;;;;;;;2.50;2.10;;;7.80;90.00;;;;;;5036662;28;20177;-88
2023/03/29 03:02:36;;;;;;;2.40;2.20;;;7.80;89.00;;;;;;5035645;28;20193;-88
2023/03/29 03:05:04;;;;;;;2.50;2.30;;;7.80;89.50;;;;;;5035536;28;20185;-89
2023/03/29 03:07:32;;;;;;;2.60;2.40;;;7.80;89.30;;;;;;5036397;28;20201;-88
2023/03/29 03:09:58;;;;;;;2.57;2.37;;;7.70;90.20;;;;;;5035260;28;20280;-88
2023/03/29 03:12:24;;;;;;;2.40;2.20;;;7.70;90.80;;;;;;5035300;28;20232;-89
2023/03/29 03:14:49;;;;;;;3.73;2.20;;;7.60;90.40;;;;;;5035435;28;20181;-89
2023/03/29 03:17:17;;;;;;;3.00;2.73;;;7.50;90.10;;;;;;5035260;28;20271;-88
2023/03/29 03:19:43;;;;;;;3.63;2.20;;;7.30;92.30;;;;;;5035419;28;20201;-88
2023/03/29 03:22:08;;;;;;;3.87;2.73;;;7.30;92.60;;;;;;5038953;28;20196;-90
2023/03/29 03:24:34;;;;;;;3.60;2.80;;;7.40;89.60;;;;;;5038518;28;20602;-89
2023/03/29 03:27:00;;;;;;;3.53;2.27;;;7.40;89.00;;;;;;5044124;28;20191;-90
2023/03/29 03:29:27;;;;;;;4.33;3.00;;;7.40;88.80;;;;;;5041287;28;20250;-93
2023/03/29 03:31:53;;;;;;;3.43;3.03;;;7.40;89.60;;;;;;5042133;28;20220;-94
2023/03/29 03:34:19;;;;;;;3.07;2.70;;;7.40;88.00;;;;;;5060808;28;20217;-90
2023/03/29 03:36:46;;;;;;;3.20;2.90;;;7.50;88.10;;;;;;5043412;28;20193;-92
2023/03/29 03:39:12;;;;;;;3.20;2.90;;;7.50;88.70;;;;;;5053675;28;20185;-87
2023/03/29 03:41:38;;;;;;;5.60;2.80;;;7.40;88.50;;;;;;5041109;28;20647;-89
2023/03/29 03:44:04;;;;;;;2.83;2.63;;;7.50;90.00;;;;;;5022921;28;20177;-88
2023/03/29 03:46:30;;;;;;;3.20;3.00;;;7.50;88.90;;;;;;5021465;28;20729;-90
2023/03/29 03:48:57;;;;;;;4.07;3.00;;;7.50;88.30;;;;;;5027198;28;20192;-89
2023/03/29 03:51:23;;;;;;;4.37;3.10;;;7.40;87.10;;;;;;5041360;28;20922;-89
2023/03/29 03:53:48;;;;;;;4.53;3.33;;;7.40;89.60;;;;;;5057984;28;20254;-88
2023/03/29 03:56:15;;;;;;;3.40;3.10;;;7.50;90.00;;;;;;5044496;28;20189;-89
2023/03/29 03:58:40;;;;;;;3.10;2.80;;;7.40;90.00;;;;;;5038707;28;20196;-89
2023/03/29 04:01:07;;;;;;;4.13;3.50;;;7.40;90.90;;;;;;5039645;28;20181;-88
2023/03/29 04:03:33;;;;;;;3.57;3.27;;;7.40;90.80;;;;;;5009601;28;20239;-88
2023/03/29 04:06:00;;;;;;;3.20;3.00;;;7.50;90.10;;;;;;5030130;28;20276;-90
2023/03/29 04:08:26;;;;;;;3.40;3.10;;;7.50;89.70;;;;;;5039148;28;20199;-90
2023/03/29 04:10:54;;;;;;;4.27;3.57;;;7.40;90.60;;;;;;5020843;28;20197;-89
2023/03/29 04:13:21;;;;;;;4.87;4.20;;;7.50;91.30;;;;;;5001754;28;20259;-89
2023/03/29 04:15:48;;;;;;;5.80;4.23;;;7.50;90.70;;;;;;5023971;28;20204;-90
2023/03/29 04:18:15;;;;;;;6.90;4.23;;;7.50;90.00;;;;;;5039133;28;20275;-89
2023/03/29 04:20:41;;;;;;;5.03;4.57;;;7.40;90.80;;;;;;5038125;28;20706;-90
2023/03/29 04:23:07;;;;;;;5.77;4.60;;;7.40;90.30;;;;;;5038100;28;20216;-89
2023/03/29 04:25:32;;;;;;;5.17;4.10;;;7.40;92.30;;;;;;5038776;28;20211;-91
2023/03/29 04:27:58;;;;;;;4.20;3.70;;;7.50;92.90;;;;;;5035843;28;20690;-88
2023/03/29 04:30:24;;;;;;;6.10;3.97;;;7.60;92.00;;;;;;5042478;28;20193;-89
2023/03/29 04:32:49;;;;;;;3.53;3.23;;;7.70;91.30;;;;;;5053909;28;20216;-87
2023/03/29 04:35:15;;;;;;;3.57;3.27;;;7.70;91.30;;;;;;5067887;28;20187;-90
2023/03/29 04:37:41;;;;;;;4.33;3.93;;;7.80;92.00;;;;;;5050031;28;20188;-88
2023/03/29 04:40:08;;;;;;;4.67;4.27;;;7.80;90.90;;;;;;5048942;28;20181;-90
2023/03/29 04:42:36;;;;;;;5.40;4.63;;;7.90;90.30;;;;;;5051886;28;20216;-90
2023/03/29 04:45:01;;;;;;;4.43;3.43;;;7.80;91.50;;;;;;5053186;28;20177;-89
2023/03/29 04:47:28;;;;;;;3.57;3.27;;;7.80;91.70;;;;;;5049618;28;20173;-91
2023/03/29 04:49:54;;;;;;;4.50;4.10;;;7.70;89.80;;;;;;5063723;28;20180;-92
2023/03/29 04:52:21;;;;;;;4.23;3.83;;;7.70;91.10;;;;;;5076064;28;20196;-91
2023/03/29 04:54:46;;;;;;;4.50;4.10;;;7.60;91.30;;;;;;5056997;28;20189;-92
2023/03/29 04:57:12;;;;;;;3.93;3.50;;;7.50;92.70;;;;;;5044883;28;20177;-89
2023/03/29 04:59:37;;;;;;;4.00;3.63;;;7.60;93.00;;;;;;5051360;28;20181;-91
2023/03/29 05:02:03;;;;;;;4.07;3.47;;;7.60;94.10;;;;;;5056308;28;20216;-92
2023/03/29 05:04:30;;;;;;;4.03;3.67;;;7.60;94.00;;;;;;5052058;28;20211;-87
2023/03/29 05:06:56;;;;;;;4.43;4.00;;;7.70;94.50;;;;;;5046950;28;20208;-88
2023/03/29 05:09:22;;;;;;;6.90;4.53;;;7.70;93.80;;;;;;5047211;28;20240;-87
2023/03/29 05:11:49;;;;;;;5.37;4.90;;;7.70;94.30;;;;;;5047748;28;20702;-90
2023/03/29 05:14:15;;;;;;;4.70;4.03;;;7.60;95.40;;;;;;5047011;28;20200;-90
2023/03/29 05:16:41;;;;;;;4.17;3.77;;;7.80;94.70;;;;;;5031492;28;20183;-88
2023/03/29 05:19:10;;;;;;;4.53;4.13;;;7.60;94.10;;;;;;5058041;28;20216;-89
2023/03/29 05:21:36;;;;;;;7.53;6.73;;;7.70;94.80;;;;;;5051950;28;20184;-88
2023/03/29 05:24:03;;;;;;;5.23;4.73;;;7.80;95.40;;;;;;5026501;28;20195;-88
2023/03/29 05:26:29;;;;;;;8.93;7.93;;;7.80;95.60;;;;;;5040635;28;20177;-90
2023/03/29 05:28:55;;;;;;;10.10;6.60;;;7.80;94.50;;;;;;5041584;28;20212;-89
2023/03/29 05:31:22;;;;;;;9.23;8.33;;;7.80;95.40;;;;;;5041292;28;20207;-87
2023/03/29 05:33:49;;;;;;;6.80;5.63;;;7.80;94.70;;;;;;5042934;28;20200;-87
2023/03/29 05:36:18;;;;;;;10.37;9.37;;;7.90;95.00;;;;;;5043715;28;20165;-90
2023/03/29 05:38:45;;;;;;;11.23;10.13;;;7.90;94.60;;;;;;5044069;28;20186;-89
2023/03/29 05:41:11;;;;;;;8.07;5.70;;;7.80;96.00;;;;;;5043888;28;20221;-90
2023/03/29 05:43:37;;;;;;;5.93;4.87;;;7.90;95.10;;;;;;5035006;28;20193;-88
2023/03/29 05:46:04;;;;;;;6.90;5.23;;;7.80;97.20;;;;;;5043444;28;20172;-90
2023/03/29 05:48:31;;;;;;;5.70;4.83;;;7.80;97.80;;;;;;5061405;28;20180;-89
2023/03/29 05:50:57;;;;;;;5.73;4.53;;;7.90;98.10;;;;;;5062534;28;20176;-87
2023/03/29 05:53:26;;;;;;;5.00;4.33;;;7.70;99.90;;;;;;5059215;28;20211;-87
2023/03/29 05:55:52;;;;;;;5.13;4.57;;;7.80;98.80;;;;;;5042564;28;20176;-89
2023/03/29 05:58:19;;;;;;;5.00;4.50;;;7.80;98.20;;;;;;5042437;28;20192;-87
2023/03/29 06:00:45;;;;;;;4.50;4.10;;;7.90;97.80;;;;;;5042608;28;20195;-87
2023/03/29 06:03:23;;;;;;;4.93;4.43;;;8.00;97.50;;;;;;5042523;28;20231;-88
2023/03/29 06:05:57;;;;;;;6.40;4.33;;;8.10;96.90;;;;;;5043540;28;20180;-88
2023/03/29 06:08:24;;;;;;;5.63;3.90;;;8.20;95.10;;;;;;5041138;28;20178;-89
2023/03/29 06:10:50;;;;;;;4.00;3.60;;;8.20;92.50;;;;;;5042195;28;20184;-87
2023/03/29 06:13:16;;;;;;;6.40;3.93;;;8.20;91.50;;;;;;5041107;28;20744;-90
2023/03/29 06:15:42;;;;;;;4.80;4.30;;;8.30;91.70;;;;;;5043645;28;20248;-87
2023/03/29 06:18:08;;;;;;;4.70;4.20;;;8.30;92.40;;;;;;5047884;28;20173;-88
2023/03/29 06:20:34;;;;;;;4.70;3.90;;;8.30;91.10;;;;;;5040776;28;20558;-87
2023/03/29 06:22:59;;;;;;;4.97;4.30;;;8.30;90.40;;;;;;5040467;28;20265;-89
2023/03/29 06:25:25;;;;;;;7.20;4.40;;;8.20;90.60;;;;;;5039697;28;20268;-89
2023/03/29 06:27:51;;;;;;;5.10;3.90;;;8.30;90.70;;;;;;5041698;28;20188;-89
2023/03/29 06:30:18;;;;;;;4.20;3.80;;;8.30;89.50;;;;;;5041860;28;20189;-88
2023/03/29 06:32:44;;;;;;;5.27;3.83;;;8.40;89.00;;;;;;5042197;28;20201;-89
2023/03/29 06:35:10;;;;;;;5.77;4.63;;;8.50;88.70;;;;;;5042180;28;20215;-88
2023/03/29 06:37:39;;;;;;;5.93;4.33;;;8.50;87.60;;;;;;5042945;28;20263;-87
2023/03/29 06:40:05;;;;;;;4.13;3.73;;;8.60;86.90;;;;;;5042340;28;20180;-88
2023/03/29 06:42:31;;;;;;;5.30;3.80;;;8.60;88.00;;;;;;5042888;28;20208;-88
2023/03/29 06:44:57;;;;;;;5.30;4.30;;;8.60;88.40;;;;;;5044710;28;20189;-85
2023/03/29 06:47:29;;;;;;;4.73;4.33;;;8.70;88.30;;;;;;5047047;28;20173;-86
2023/03/29 06:49:55;;;;;;;7.10;5.27;;;8.80;87.50;;;;;;5060670;28;20172;-87
2023/03/29 06:52:21;;;;;;;10.10;4.40;;;8.60;88.80;;;;;;5066971;28;20256;-85
2023/03/29 06:54:46;;;;;;;9.87;4.40;;;8.60;89.00;;;;;;5066728;28;20236;-86
2023/03/29 06:57:12;;;;;;;6.13;4.53;;;8.70;84.80;;;;;;5031782;28;20209;-85
2023/03/29 06:59:38;;;;;;;4.43;4.10;;;8.70;87.30;;;;;;5046667;28;20169;-85
2023/03/29 07:02:05;;;;;;;5.77;4.30;;;8.70;86.50;;;;;;5046821;28;20209;-85
2023/03/29 07:04:31;;;;;;;9.83;5.33;;;8.80;85.40;;;;;;5050150;28;20193;-87
2023/03/29 07:07:04;;;;;;;6.00;5.00;;;8.70;86.40;;;;;;5050682;28;20216;-86
2023/03/29 07:09:31;;;;;;;6.07;4.83;;;8.80;86.90;;;;;;5050134;28;20169;-86
2023/03/29 07:11:57;;;;;;;4.50;4.10;;;8.90;85.40;;;;;;5055007;28;20275;-86
2023/03/29 07:14:27;;;;;;;6.80;4.63;;;9.10;84.40;;;;;;5054950;28;20198;-86
2023/03/29 07:16:54;;;;;;;4.83;4.13;;;9.30;83.20;;;;;;5047403;28;20189;-84
2023/03/29 07:19:21;;;;;;;5.30;4.80;;;9.20;81.70;;;;;;5030404;28;20193;-87
2023/03/29 07:21:47;;;;;;;4.67;4.27;;;9.20;82.20;;;;;;5048317;28;20205;-86
2023/03/29 07:24:13;;;;;;;6.27;4.40;;;9.20;82.70;;;;;;5045724;28;20276;-87
2023/03/29 07:26:38;;;;;;;7.80;4.67;;;9.20;79.70;;;;;;5048022;28;20196;-87
2023/03/29 07:29:05;;;;;;;7.07;5.30;;;9.30;79.90;;;;;;5048597;28;20190;-86
2023/03/29 07:31:33;;;;;;;8.37;6.57;;;9.20;79.40;;;;;;5050049;28;20432;-84
2023/03/29 07:33:59;;;;;;;7.20;5.60;;;9.10;82.40;;;;;;5050215;28;20216;-86
2023/03/29 07:36:27;;;;;;;6.20;5.63;;;9.20;81.90;;;;;;5049605;28;20178;-85
2023/03/29 07:38:53;;;;;;;7.33;4.93;;;9.20;82.20;;;;;;5048714;28;20230;-81
2023/03/29 07:41:18;;;;;;;6.03;5.43;;;9.30;81.80;;;;;;5049660;28;20624;-85
2023/03/29 07:43:45;;;;;;;5.63;4.60;;;9.40;82.50;;;;;;5050561;28;20218;-87
2023/03/29 07:46:11;;;;;;;6.43;5.03;;;9.50;82.30;;;;;;5048462;28;20232;-86
2023/03/29 07:48:37;;;;;;;5.10;4.60;;;9.50;83.00;;;;;;5049687;28;20197;-88
2023/03/29 07:51:03;;;;;;;10.87;4.60;;;9.50;82.10;;;;;;5047108;28;20187;-86
2023/03/29 07:53:28;;;;;;;6.83;4.73;;;9.60;82.50;;;;;;5046553;28;20233;-86
2023/03/29 07:55:54;;;;;;;4.80;4.33;;;9.60;81.70;;;;;;5029622;28;20183;-84
2023/03/29 07:58:20;;;;;;;7.87;4.80;;;9.50;79.70;;;;;;5046789;28;20208;-85
2023/03/29 08:00:47;;;;;;;6.80;5.30;;;9.60;80.20;;;;;;5047218;28;20201;-86
2023/03/29 08:03:14;;;;;;;10.37;5.30;;;9.70;80.90;;;;;;5047674;28;20218;-87
2023/03/29 08:05:39;;;;;;;7.27;5.40;;;10.00;78.50;;;;;;5045866;28;20201;-87
2023/03/29 08:08:05;;;;;;;5.57;4.97;;;10.10;76.60;;;;;;5060584;28;20195;-87
2023/03/29 08:10:33;;;;;;;7.40;4.37;;;10.20;74.50;;;;;;5050213;28;20276;-88
2023/03/29 08:12:59;;;;;;;20.53;16.40;;;10.30;72.40;;;;;;5045868;28;20219;-86
2023/03/29 08:15:26;;;;;;;5.67;5.07;;;10.20;74.10;;;;;;5043361;28;20185;-86
2023/03/29 08:17:52;;;;;;;26.77;24.17;;;10.10;76.20;;;;;;5040216;28;20185;-87
2023/03/29 08:20:18;;;;;;;5.30;4.80;;;10.20;75.50;;;;;;5027318;28;20265;-87
2023/03/29 08:22:44;;;;;;;4.93;4.53;;;10.40;74.60;;;;;;5053771;28;20199;-89
2023/03/29 08:25:10;;;;;;;5.87;4.63;;;10.50;73.00;;;;;;5056052;28;20187;-88
2023/03/29 08:27:36;;;;;;;5.10;4.70;;;10.40;73.90;;;;;;5057720;28;20231;-88
2023/03/29 08:30:04;;;;;;;7.10;5.10;;;10.30;76.50;;;;;;5050248;28;20233;-84
2023/03/29 08:32:30;;;;;;;6.00;5.40;;;10.20;76.50;;;;;;5047130;28;20262;-84
2023/03/29 08:34:56;;;;;;;6.77;4.90;;;10.40;74.30;;;;;;5045659;28;20193;-85
2023/03/29 08:37:23;;;;;;;6.33;5.10;;;10.60;74.80;;;;;;5046477;28;20598;-85
2023/03/29 08:39:49;;;;;;;5.93;5.37;;;10.80;71.80;;;;;;5046685;28;20173;-88
2023/03/29 08:42:49;;;;;;;6.60;5.63;;;10.80;72.20;;;;;;5046075;28;20219;-86
2023/03/29 08:45:38;;;;;;;6.57;5.27;;;10.90;73.80;;;;;;5032266;28;20196;-86
2023/03/29 08:48:24;;;;;;;8.77;6.07;;;10.90;75.50;;;;;;5046072;28;20563;-87
2023/03/29 08:50:53;;;;;;;6.63;5.93;;;11.20;70.70;;;;;;5045517;28;20171;-87
2023/03/29 08:53:35;;;;;;;6.23;5.60;;;11.40;68.00;;;;;;5045336;28;20302;-85
2023/03/29 08:56:10;;;;;;;13.30;12.10;;;11.30;69.70;;;;;;5043833;28;20266;-87
2023/03/29 08:58:37;;;;;;;7.77;6.97;;;11.60;67.30;;;;;;5045406;28;20166;-88
2023/03/29 09:01:07;;;;;;;7.30;4.63;;;11.70;68.10;;;;;;5046357;28;20184;-86
2023/03/29 09:03:38;;;;;;;5.53;5.03;;;11.90;67.50;;;;;;5044415;28;20252;-87
2023/03/29 09:06:05;;;;;;;5.17;4.77;;;12.00;66.90;;;;;;5060613;28;20214;-87
2023/03/29 09:08:33;;;;;;;5.73;5.17;;;12.10;67.10;;;;;;5046842;28;20185;-87
2023/03/29 09:11:18;;;;;;;7.43;5.20;;;12.10;69.60;;;;;;5027072;28;20935;-87
2023/03/29 09:14:07;;;;;;;8.27;5.50;;;12.00;68.90;;;;;;5043174;28;20253;-81
2023/03/29 09:16:39;;;;;;;6.23;4.97;;;12.00;68.10;;;;;;5023501;28;20163;-85
2023/03/29 09:19:18;;;;;;;5.63;4.53;;;11.80;67.60;;;;;;5027020;28;20261;-87
2023/03/29 09:21:57;;;;;;;10.97;5.37;;;11.90;65.30;;;;;;5044022;28;20218;-86
2023/03/29 09:24:36;;;;;;;14.93;5.90;;;12.00;65.60;;;;;;5050675;28;20261;-85
2023/03/29 09:27:26;;;;;;;6.53;4.90;;;12.20;65.20;;;;;;5054985;28;20191;-87
2023/03/29 09:30:24;;;;;;;5.43;4.93;;;12.40;65.40;;;;;;5048638;28;20200;-84
2023/03/29 09:33:09;;;;;;;5.53;4.90;;;12.60;64.00;;;;;;5050023;28;20205;-84
2023/03/29 09:35:39;;;;;;;6.00;4.57;;;12.70;62.40;;;;;;5044557;28;20183;-84
2023/03/29 09:38:10;;;;;;;7.40;4.77;;;12.80;62.40;;;;;;5039255;28;20190;-84
2023/03/29 09:40:47;;;;;;;7.03;4.30;;;13.10;61.80;;;;;;5042710;28;20181;-86
2023/03/29 09:43:17;;;;;;;5.37;4.80;;;13.00;61.10;;;;;;5046539;28;20232;-85
2023/03/29 09:45:48;;;;;;;5.87;4.83;;;12.90;60.20;;;;;;5028277;28;20187;-83
2023/03/29 09:48:18;;;;;;;5.67;4.63;;;13.00;62.90;;;;;;5048360;28;20176;-86
2023/03/29 09:50:51;;;;;;;5.13;4.73;;;13.10;61.70;;;;;;5049713;28;20188;-87
2023/03/29 09:53:19;;;;;;;4.57;4.17;;;13.30;61.20;;;;;;5043896;28;20238;-86
2023/03/29 09:55:48;;;;;;;6.07;4.80;;;13.20;61.80;;;;;;5046791;28;20187;-85
2023/03/29 09:58:17;;;;;;;6.03;4.30;;;13.20;60.30;;;;;;5029183;28;20191;-87
2023/03/29 10:00:45;;;;;;;4.83;4.30;;;13.80;58.50;;;;;;5044992;28;20192;-85
2023/03/29 10:03:23;;;;;;;6.60;3.93;;;14.20;57.20;;;;;;5016647;28;20209;-86
2023/03/29 10:05:52;;;;;;;3.70;3.37;;;14.10;58.60;;;;;;5039204;28;20195;-85
2023/03/29 10:08:29;;;;;;;3.87;3.27;;;14.50;51.90;;;;;;5037878;28;20211;-85
2023/03/29 10:11:00;;;;;;;5.67;3.37;;;14.70;52.90;;;;;;5038648;28;20205;-84
2023/03/29 10:13:31;;;;;;;3.90;2.97;;;14.60;53.00;;;;;;5038288;28;20219;-84
2023/03/29 10:16:06;;;;;;;5.67;3.40;;;14.60;54.70;;;;;;5037419;28;20205;-86
2023/03/29 10:18:33;;;;;;;4.80;4.33;;;14.60;52.20;;;;;;5035233;28;20187;-86
2023/03/29 10:21:02;;;;;;;3.60;3.30;;;14.90;51.40;;;;;;5037034;28;20444;-85
2023/03/29 10:23:38;;;;;;;5.43;3.77;;;15.10;50.80;;;;;;5038121;28;20216;-85
2023/03/29 10:26:26;;;;;;;3.47;3.27;;;15.30;50.70;;;;;;5038118;28;20213;-85
2023/03/29 10:28:56;;;;;;;4.50;3.57;;;15.30;50.70;;;;;;5037247;28;20198;-85
2023/03/29 10:31:22;;;;;;;8.77;4.80;;;15.30;52.00;;;;;;5039458;28;20196;-86
2023/03/29 10:33:54;;;;;;;6.43;3.93;;;15.50;50.90;;;;;;5018344;28;20212;-85
2023/03/29 10:36:22;;;;;;;5.17;3.83;;;15.80;50.40;;;;;;5039894;28;20201;-85
2023/03/29 10:38:50;;;;;;;4.10;3.60;;;16.10;47.80;;;;;;5038752;28;20208;-85
2023/03/29 10:41:17;;;;;;;3.87;3.07;;;16.10;48.00;;;;;;5036367;28;20193;-84
2023/03/29 10:43:48;;;;;;;3.70;3.30;;;16.20;49.00;;;;;;5038573;28;20305;-85
2023/03/29 10:46:30;;;;;;;4.17;3.20;;;16.60;45.90;;;;;;5038124;28;20308;-83
2023/03/29 10:49:08;;;;;;;3.60;3.00;;;16.60;46.40;;;;;;5036141;28;20674;-84
2023/03/29 10:51:35;;;;;;;4.87;3.23;;;16.70;45.20;;;;;;5036969;28;20655;-86
2023/03/29 10:54:02;;;;;;;5.23;3.67;;;16.40;48.40;;;;;;5039973;28;20209;-85
2023/03/29 10:56:38;;;;;;;5.30;3.17;;;16.40;46.30;;;;;;5044255;28;20181;-87
2023/03/29 10:59:29;;;;;;;3.40;3.17;;;16.40;46.80;;;;;;5047263;28;20265;-84
2023/03/29 11:02:13;;;;;;;3.63;3.33;;;16.40;47.00;;;;;;5036511;28;20204;-85
2023/03/29 11:04:55;;;;;;;3.57;3.23;;;16.40;44.10;;;;;;5022561;28;20166;-84
2023/03/29 11:07:32;;;;;;;3.57;3.27;;;16.30;44.00;;;;;;5044851;28;20181;-87
2023/03/29 11:10:27;;;;;;;4.57;3.43;;;16.20;47.00;;;;;;5029151;28;20184;-84
2023/03/29 11:13:14;;;;;;;5.13;3.07;;;16.30;45.80;;;;;;5028045;28;20323;-87
2023/03/29 11:15:54;;;;;;;3.30;2.97;;;16.30;45.20;;;;;;5045531;28;20197;-85
2023/03/29 11:18:21;;;;;;;7.37;3.10;;;16.50;47.60;;;;;;5043216;28;20215;-84
2023/03/29 11:21:23;;;;;;;6.53;3.30;;;16.30;46.00;;;;;;5045105;28;20215;-84
2023/03/29 11:24:20;;;;;;;6.03;3.30;;;16.60;44.80;;;;;;5044912;28;20177;-86
2023/03/29 11:26:55;;;;;;;3.53;2.73;;;16.70;47.40;;;;;;5043186;28;20822;-85
2023/03/29 11:29:29;;;;;;;4.20;3.13;;;16.80;45.90;;;;;;5043371;28;20248;-84
2023/03/29 11:32:07;;;;;;;3.27;2.97;;;16.70;44.70;;;;;;5043733;28;20208;-87
2023/03/29 11:35:05;;;;;;;4.33;2.93;;;16.70;44.00;;;;;;5043862;28;20227;-87
2023/03/29 11:38:12;;;;;;;6.57;3.03;;;16.40;44.50;;;;;;5043900;28;20207;-86
2023/03/29 11:40:56;;;;;;;5.20;3.10;;;16.10;45.00;;;;;;5044915;28;20236;-85
2023/03/29 11:43:34;;;;;;;3.43;3.10;;;16.10;48.40;;;;;;5036472;28;20331;-85
2023/03/29 11:46:12;;;;;;;2.90;2.70;;;16.30;45.70;;;;;;5020130;28;20189;-85
2023/03/29 11:49:10;;;;;;;3.30;3.00;;;16.10;45.90;;;;;;5047937;28;20180;-85
2023/03/29 11:51:54;;;;;;;3.37;3.07;;;15.80;47.00;;;;;;5037545;28;20258;-85
2023/03/29 11:54:52;;;;;;;5.03;2.80;;;16.10;47.60;;;;;;5062759;28;20218;-84
2023/03/29 11:57:26;;;;;;;3.60;3.00;;;16.50;45.60;;;;;;5047906;28;20229;-84
2023/03/29 12:00:04;;;;;;;3.43;3.13;;;16.50;48.10;;;;;;5047168;28;20181;-86
2023/03/29 12:02:39;;;;;;;3.60;2.97;;;16.80;43.60;;;;;;5047687;28;20211;-85
2023/03/29 12:05:14;;;;;;;3.53;3.23;;;16.50;47.50;;;;;;5030858;28;20196;-85
2023/03/29 12:08:12;;;;;;;4.37;3.27;;;16.60;48.30;;;;;;5045777;28;20176;-85
2023/03/29 12:10:45;;;;;;;5.03;3.00;;;16.70;49.00;;;;;;5046164;28;20177;-87
2023/03/29 12:13:13;;;;;;;3.57;3.27;;;16.60;48.90;;;;;;5045833;28;20216;-85
2023/03/29 12:15:45;;;;;;;3.73;3.23;;;16.60;47.00;;;;;;5045902;28;20181;-84
2023/03/29 12:18:29;;;;;;;3.33;2.90;;;16.80;46.20;;;;;;5047544;28;20251;-85
2023/03/29 12:21:05;;;;;;;3.40;3.07;;;16.70;45.70;;;;;;5047379;28;20185;-87
2023/03/29 12:23:31;;;;;;;3.70;3.40;;;16.60;47.50;;;;;;5048085;28;20255;-86
2023/03/29 12:26:16;;;;;;;6.00;3.70;;;16.50;49.10;;;;;;5048279;28;20250;-86
2023/03/29 12:29:04;;;;;;;4.73;3.50;;;16.10;48.30;;;;;;5049335;28;20203;-83
2023/03/29 12:31:56;;;;;;;4.57;4.17;;;16.30;49.50;;;;;;5048472;28;20235;-85
2023/03/29 12:34:40;;;;;;;4.93;3.20;;;16.60;47.70;;;;;;5047458;28;20201;-85
2023/03/29 12:37:35;;;;;;;6.70;3.33;;;16.60;46.20;;;;;;5030399;28;20177;-85
2023/03/29 12:40:21;;;;;;;5.53;3.33;;;16.70;47.70;;;;;;5030014;28;20192;-86
2023/03/29 12:42:52;;;;;;;3.90;3.50;;;16.40;50.80;;;;;;5047995;28;20550;-85
2023/03/29 12:45:38;;;;;;;3.70;3.03;;;16.40;50.80;;;;;;5046497;28;20205;-85
2023/03/29 12:48:06;;;;;;;5.50;3.30;;;16.20;52.30;;;;;;5046330;28;20722;-86
2023/03/29 12:50:52;;;;;;;4.70;3.27;;;16.30;52.80;;;;;;5035396;28;20196;-86
2023/03/29 12:53:25;;;;;;;3.40;2.50;;;16.30;53.50;;;;;;5042811;28;20566;-86
2023/03/29 12:56:07;;;;;;;3.80;2.63;;;15.80;56.40;;;;;;5053014;28;20208;-87
2023/03/29 12:58:38;;;;;;;2.77;2.40;;;15.60;59.30;;;;;;5044138;28;20526;-85
2023/03/29 13:01:29;;;;;;;2.30;2.20;;;15.30;59.40;;;;;;5045916;28;20185;-86
2023/03/29 13:04:17;;;;;;;2.80;2.60;;;15.20;60.80;;;;;;5034753;28;20182;-87
2023/03/29 13:06:45;;;;;;;3.47;2.57;;;14.90;67.00;;;;;;5037096;28;20182;-87
2023/03/29 13:09:34;;;;;;;2.93;2.63;;;14.30;76.00;;;;;;5056264;28;20175;-87
2023/03/29 13:12:07;;;;;;;5.17;2.30;;;13.80;83.30;;;;;;5055452;28;20219;-86
2023/03/29 13:14:36;;;;;;;2.90;2.53;;;13.90;83.80;;;;;;5046059;28;20194;-87